sensor_id;sensor_type;location;lat;lon;timestamp;P1;durP1;ratioP1;P2;durP2;ratioP2
26696;SDS011;14312;52.614;13.496;2023-08-08T00:01:35;2.88;;;1.50;;
26696;SDS011;14312;52.614;13.496;2023-08-08T00:04:21;2.17;;;1.85;;
26696;SDS011;14312;52.614;13.496;2023-08-08T00:07:07;2.53;;;1.70;;
26696;SDS011;14312;52.614;13.496;2023-08-08T00:09:53;3.42;;;1.63;;
26696;SDS011;14312;52.614;13.496;2023-08-08T00:12:38;3.92;;;1.80;;
26696;SDS011;14312;52.614;13.496;2023-08-08T00:15:25;4.10;;;1.90;;
26696;SDS011;14312;52.614;13.496;2023-08-08T00:18:11;2.40;;;1.60;;
26696;SDS011;14312;52.614;13.496;2023-08-08T00:20:57;3.78;;;1.70;;
26696;SDS011;14312;52.614;13.496;2023-08-08T00:23:43;2.70;;;1.55;;
26696;SDS011;14312;52.614;13.496;2023-08-08T00:26:28;3.20;;;1.90;;
26696;SDS011;14312;52.614;13.496;2023-08-08T00:29:14;2.80;;;1.50;;
26696;SDS011;14312;52.614;13.496;2023-08-08T00:32:00;2.15;;;1.60;;
26696;SDS011;14312;52.614;13.496;2023-08-08T00:34:46;4.55;;;1.80;;
26696;SDS011;14312;52.614;13.496;2023-08-08T00:37:32;2.55;;;1.60;;
26696;SDS011;14312;52.614;13.496;2023-08-08T00:40:18;2.65;;;1.60;;
26696;SDS011;14312;52.614;13.496;2023-08-08T00:43:04;2.40;;;1.65;;
26696;SDS011;14312;52.614;13.496;2023-08-08T00:45:50;3.25;;;1.70;;
26696;SDS011;14312;52.614;13.496;2023-08-08T00:48:36;3.33;;;1.63;;
26696;SDS011;14312;52.614;13.496;2023-08-08T00:51:22;3.63;;;1.70;;
26696;SDS011;14312;52.614;13.496;2023-08-08T00:54:09;1.88;;;1.38;;
26696;SDS011;14312;52.614;13.496;2023-08-08T00:56:56;3.70;;;1.58;;
26696;SDS011;14312;52.614;13.496;2023-08-08T00:59:41;2.92;;;1.70;;
26696;SDS011;14312;52.614;13.496;2023-08-08T01:02:27;2.58;;;1.70;;
26696;SDS011;14312;52.614;13.496;2023-08-08T01:05:13;3.70;;;1.75;;
26696;SDS011;14312;52.614;13.496;2023-08-08T01:08:03;2.58;;;1.55;;
26696;SDS011;14312;52.614;13.496;2023-08-08T01:10:51;2.92;;;1.60;;
26696;SDS011;14312;52.614;13.496;2023-08-08T01:13:38;3.33;;;1.65;;
26696;SDS011;14312;52.614;13.496;2023-08-08T01:16:25;2.92;;;1.70;;
26696;SDS011;14312;52.614;13.496;2023-08-08T01:19:14;1.65;;;1.40;;
26696;SDS011;14312;52.614;13.496;2023-08-08T01:22:07;2.47;;;1.50;;
26696;SDS011;14312;52.614;13.496;2023-08-08T01:24:59;3.88;;;1.83;;
26696;SDS011;14312;52.614;13.496;2023-08-08T01:27:46;1.85;;;1.55;;
26696;SDS011;14312;52.614;13.496;2023-08-08T01:30:32;1.77;;;1.48;;
26696;SDS011;14312;52.614;13.496;2023-08-08T01:33:18;2.78;;;1.40;;
26696;SDS011;14312;52.614;13.496;2023-08-08T01:36:09;1.85;;;1.42;;
26696;SDS011;14312;52.614;13.496;2023-08-08T01:39:03;2.05;;;1.42;;
26696;SDS011;14312;52.614;13.496;2023-08-08T01:41:55;3.03;;;1.58;;
26696;SDS011;14312;52.614;13.496;2023-08-08T01:44:42;2.10;;;1.40;;
26696;SDS011;14312;52.614;13.496;2023-08-08T01:47:28;3.22;;;1.60;;
26696;SDS011;14312;52.614;13.496;2023-08-08T01:50:14;2.25;;;1.30;;
26696;SDS011;14312;52.614;13.496;2023-08-08T01:53:00;2.22;;;1.40;;
26696;SDS011;14312;52.614;13.496;2023-08-08T01:55:45;3.78;;;1.65;;
26696;SDS011;14312;52.614;13.496;2023-08-08T01:58:31;1.75;;;1.33;;
26696;SDS011;14312;52.614;13.496;2023-08-08T02:01:17;3.17;;;1.48;;
26696;SDS011;14312;52.614;13.496;2023-08-08T02:04:03;2.55;;;1.42;;
26696;SDS011;14312;52.614;13.496;2023-08-08T02:06:50;1.35;;;1.10;;
26696;SDS011;14312;52.614;13.496;2023-08-08T02:09:36;1.88;;;1.20;;
26696;SDS011;14312;52.614;13.496;2023-08-08T02:12:21;2.42;;;1.60;;
26696;SDS011;14312;52.614;13.496;2023-08-08T02:15:07;1.60;;;1.20;;
26696;SDS011;14312;52.614;13.496;2023-08-08T02:17:54;4.20;;;1.50;;
26696;SDS011;14312;52.614;13.496;2023-08-08T02:20:39;2.63;;;1.48;;
26696;SDS011;14312;52.614;13.496;2023-08-08T02:23:25;1.95;;;1.40;;
26696;SDS011;14312;52.614;13.496;2023-08-08T02:26:12;1.67;;;1.27;;
26696;SDS011;14312;52.614;13.496;2023-08-08T02:28:57;1.38;;;1.25;;
26696;SDS011;14312;52.614;13.496;2023-08-08T02:31:43;1.63;;;1.25;;
26696;SDS011;14312;52.614;13.496;2023-08-08T02:34:29;2.25;;;1.23;;
26696;SDS011;14312;52.614;13.496;2023-08-08T02:37:15;2.10;;;1.30;;
26696;SDS011;14312;52.614;13.496;2023-08-08T02:40:01;2.25;;;1.67;;
26696;SDS011;14312;52.614;13.496;2023-08-08T02:42:48;2.38;;;1.30;;
26696;SDS011;14312;52.614;13.496;2023-08-08T02:45:34;2.22;;;1.25;;
26696;SDS011;14312;52.614;13.496;2023-08-08T02:48:20;1.42;;;1.27;;
26696;SDS011;14312;52.614;13.496;2023-08-08T02:51:06;1.75;;;1.50;;
26696;SDS011;14312;52.614;13.496;2023-08-08T02:53:52;2.42;;;1.63;;
26696;SDS011;14312;52.614;13.496;2023-08-08T02:56:38;2.03;;;1.58;;
26696;SDS011;14312;52.614;13.496;2023-08-08T02:59:23;2.95;;;1.40;;
26696;SDS011;14312;52.614;13.496;2023-08-08T03:02:09;2.00;;;1.73;;
26696;SDS011;14312;52.614;13.496;2023-08-08T03:04:55;2.70;;;1.55;;
26696;SDS011;14312;52.614;13.496;2023-08-08T03:07:41;3.90;;;1.60;;
26696;SDS011;14312;52.614;13.496;2023-08-08T03:10:27;3.45;;;1.60;;
26696;SDS011;14312;52.614;13.496;2023-08-08T03:13:13;2.25;;;1.40;;
26696;SDS011;14312;52.614;13.496;2023-08-08T03:15:59;2.47;;;1.55;;
26696;SDS011;14312;52.614;13.496;2023-08-08T03:18:45;1.98;;;1.40;;
26696;SDS011;14312;52.614;13.496;2023-08-08T03:21:31;1.55;;;1.30;;
26696;SDS011;14312;52.614;13.496;2023-08-08T03:24:17;2.13;;;1.90;;
26696;SDS011;14312;52.614;13.496;2023-08-08T03:27:03;1.73;;;1.50;;
26696;SDS011;14312;52.614;13.496;2023-08-08T03:29:49;1.98;;;1.40;;
26696;SDS011;14312;52.614;13.496;2023-08-08T03:32:35;2.25;;;1.70;;
26696;SDS011;14312;52.614;13.496;2023-08-08T03:35:21;3.05;;;1.77;;
26696;SDS011;14312;52.614;13.496;2023-08-08T03:38:07;3.10;;;1.90;;
26696;SDS011;14312;52.614;13.496;2023-08-08T03:40:53;2.17;;;1.80;;
26696;SDS011;14312;52.614;13.496;2023-08-08T03:43:39;2.92;;;1.88;;
26696;SDS011;14312;52.614;13.496;2023-08-08T03:46:25;4.13;;;1.85;;
26696;SDS011;14312;52.614;13.496;2023-08-08T03:49:11;1.67;;;1.58;;
26696;SDS011;14312;52.614;13.496;2023-08-08T03:51:57;1.70;;;1.60;;
26696;SDS011;14312;52.614;13.496;2023-08-08T03:54:43;2.05;;;1.80;;
26696;SDS011;14312;52.614;13.496;2023-08-08T03:57:29;3.53;;;1.92;;
26696;SDS011;14312;52.614;13.496;2023-08-08T04:00:16;2.10;;;1.60;;
26696;SDS011;14312;52.614;13.496;2023-08-08T04:03:02;3.08;;;2.28;;
26696;SDS011;14312;52.614;13.496;2023-08-08T04:05:48;2.40;;;1.70;;
26696;SDS011;14312;52.614;13.496;2023-08-08T04:08:34;3.42;;;2.08;;
26696;SDS011;14312;52.614;13.496;2023-08-08T04:11:20;2.47;;;2.10;;
26696;SDS011;14312;52.614;13.496;2023-08-08T04:14:06;1.90;;;1.80;;
26696;SDS011;14312;52.614;13.496;2023-08-08T04:16:52;1.73;;;1.52;;
26696;SDS011;14312;52.614;13.496;2023-08-08T04:19:38;2.50;;;1.70;;
26696;SDS011;14312;52.614;13.496;2023-08-08T04:22:24;2.03;;;1.75;;
26696;SDS011;14312;52.614;13.496;2023-08-08T04:25:10;4.22;;;2.30;;
26696;SDS011;14312;52.614;13.496;2023-08-08T04:27:56;4.32;;;1.85;;
26696;SDS011;14312;52.614;13.496;2023-08-08T04:30:42;2.03;;;1.60;;
26696;SDS011;14312;52.614;13.496;2023-08-08T04:33:28;1.85;;;1.45;;
26696;SDS011;14312;52.614;13.496;2023-08-08T04:36:14;2.35;;;1.73;;
26696;SDS011;14312;52.614;13.496;2023-08-08T04:39:00;2.13;;;1.52;;
26696;SDS011;14312;52.614;13.496;2023-08-08T04:41:46;1.80;;;1.70;;
26696;SDS011;14312;52.614;13.496;2023-08-08T04:44:32;3.03;;;1.80;;
26696;SDS011;14312;52.614;13.496;2023-08-08T04:47:18;2.67;;;2.03;;
26696;SDS011;14312;52.614;13.496;2023-08-08T04:50:04;1.83;;;1.42;;
26696;SDS011;14312;52.614;13.496;2023-08-08T04:52:50;3.92;;;1.60;;
26696;SDS011;14312;52.614;13.496;2023-08-08T04:55:36;2.92;;;1.65;;
26696;SDS011;14312;52.614;13.496;2023-08-08T04:58:22;3.40;;;1.80;;
26696;SDS011;14312;52.614;13.496;2023-08-08T05:01:08;2.85;;;1.75;;
26696;SDS011;14312;52.614;13.496;2023-08-08T05:03:57;2.33;;;1.70;;
26696;SDS011;14312;52.614;13.496;2023-08-08T05:06:43;2.20;;;1.60;;
26696;SDS011;14312;52.614;13.496;2023-08-08T05:09:29;2.33;;;1.63;;
26696;SDS011;14312;52.614;13.496;2023-08-08T05:12:15;2.70;;;1.60;;
26696;SDS011;14312;52.614;13.496;2023-08-08T05:15:01;2.17;;;1.65;;
26696;SDS011;14312;52.614;13.496;2023-08-08T05:17:47;2.60;;;1.83;;
26696;SDS011;14312;52.614;13.496;2023-08-08T05:20:33;2.00;;;1.60;;
26696;SDS011;14312;52.614;13.496;2023-08-08T05:23:18;3.33;;;1.90;;
26696;SDS011;14312;52.614;13.496;2023-08-08T05:26:04;2.33;;;1.60;;
26696;SDS011;14312;52.614;13.496;2023-08-08T05:28:50;2.55;;;1.83;;
26696;SDS011;14312;52.614;13.496;2023-08-08T05:31:36;1.67;;;1.50;;
26696;SDS011;14312;52.614;13.496;2023-08-08T05:34:25;1.88;;;1.63;;
26696;SDS011;14312;52.614;13.496;2023-08-08T05:37:11;2.13;;;1.70;;
26696;SDS011;14312;52.614;13.496;2023-08-08T05:39:57;2.35;;;1.65;;
26696;SDS011;14312;52.614;13.496;2023-08-08T05:42:43;2.42;;;1.50;;
26696;SDS011;14312;52.614;13.496;2023-08-08T05:45:29;4.13;;;2.20;;
26696;SDS011;14312;52.614;13.496;2023-08-08T05:48:15;3.03;;;1.90;;
26696;SDS011;14312;52.614;13.496;2023-08-08T05:51:01;2.38;;;1.70;;
26696;SDS011;14312;52.614;13.496;2023-08-08T05:53:50;1.67;;;1.35;;
26696;SDS011;14312;52.614;13.496;2023-08-08T05:56:36;3.08;;;1.83;;
26696;SDS011;14312;52.614;13.496;2023-08-08T05:59:22;3.67;;;1.60;;
26696;SDS011;14312;52.614;13.496;2023-08-08T06:02:08;2.88;;;1.73;;
26696;SDS011;14312;52.614;13.496;2023-08-08T06:04:54;2.17;;;1.90;;
26696;SDS011;14312;52.614;13.496;2023-08-08T06:07:40;2.38;;;1.40;;
26696;SDS011;14312;52.614;13.496;2023-08-08T06:10:26;2.08;;;1.52;;
26696;SDS011;14312;52.614;13.496;2023-08-08T06:13:12;3.65;;;1.77;;
26696;SDS011;14312;52.614;13.496;2023-08-08T06:15:58;2.10;;;1.90;;
26696;SDS011;14312;52.614;13.496;2023-08-08T06:18:46;1.90;;;1.60;;
26696;SDS011;14312;52.614;13.496;2023-08-08T06:21:32;3.25;;;1.60;;
26696;SDS011;14312;52.614;13.496;2023-08-08T06:24:18;2.45;;;1.98;;
26696;SDS011;14312;52.614;13.496;2023-08-08T06:27:04;2.65;;;1.63;;
26696;SDS011;14312;52.614;13.496;2023-08-08T06:29:50;1.85;;;1.48;;
26696;SDS011;14312;52.614;13.496;2023-08-08T06:32:37;3.53;;;1.48;;
26696;SDS011;14312;52.614;13.496;2023-08-08T06:35:22;2.22;;;1.60;;
26696;SDS011;14312;52.614;13.496;2023-08-08T06:38:08;1.77;;;1.58;;
26696;SDS011;14312;52.614;13.496;2023-08-08T06:40:54;3.50;;;1.80;;
26696;SDS011;14312;52.614;13.496;2023-08-08T06:43:42;3.28;;;1.58;;
26696;SDS011;14312;52.614;13.496;2023-08-08T06:46:28;3.70;;;1.70;;
26696;SDS011;14312;52.614;13.496;2023-08-08T06:49:13;2.55;;;1.70;;
26696;SDS011;14312;52.614;13.496;2023-08-08T06:51:59;2.78;;;1.50;;
26696;SDS011;14312;52.614;13.496;2023-08-08T06:54:46;2.13;;;1.80;;
26696;SDS011;14312;52.614;13.496;2023-08-08T06:57:32;2.00;;;1.50;;
26696;SDS011;14312;52.614;13.496;2023-08-08T07:00:19;2.28;;;1.73;;
26696;SDS011;14312;52.614;13.496;2023-08-08T07:03:05;4.05;;;1.80;;
26696;SDS011;14312;52.614;13.496;2023-08-08T07:05:51;1.60;;;1.48;;
26696;SDS011;14312;52.614;13.496;2023-08-08T07:08:38;3.00;;;1.90;;
26696;SDS011;14312;52.614;13.496;2023-08-08T07:11:24;2.78;;;1.60;;
26696;SDS011;14312;52.614;13.496;2023-08-08T07:14:10;1.65;;;1.50;;
26696;SDS011;14312;52.614;13.496;2023-08-08T07:16:56;1.98;;;1.50;;
26696;SDS011;14312;52.614;13.496;2023-08-08T07:19:42;2.10;;;1.70;;
26696;SDS011;14312;52.614;13.496;2023-08-08T07:22:28;2.47;;;1.67;;
26696;SDS011;14312;52.614;13.496;2023-08-08T07:25:14;2.15;;;1.60;;
26696;SDS011;14312;52.614;13.496;2023-08-08T07:28:01;1.55;;;1.35;;
26696;SDS011;14312;52.614;13.496;2023-08-08T07:30:48;2.13;;;1.52;;
26696;SDS011;14312;52.614;13.496;2023-08-08T07:33:34;2.17;;;1.65;;
26696;SDS011;14312;52.614;13.496;2023-08-08T07:36:19;2.85;;;1.58;;
26696;SDS011;14312;52.614;13.496;2023-08-08T07:39:05;2.15;;;1.50;;
26696;SDS011;14312;52.614;13.496;2023-08-08T07:41:51;2.47;;;1.63;;
26696;SDS011;14312;52.614;13.496;2023-08-08T07:44:37;3.00;;;1.50;;
26696;SDS011;14312;52.614;13.496;2023-08-08T07:47:24;1.60;;;1.50;;
26696;SDS011;14312;52.614;13.496;2023-08-08T07:50:10;2.20;;;1.80;;
26696;SDS011;14312;52.614;13.496;2023-08-08T07:52:56;4.85;;;1.60;;
26696;SDS011;14312;52.614;13.496;2023-08-08T07:55:42;1.77;;;1.50;;
26696;SDS011;14312;52.614;13.496;2023-08-08T07:58:29;3.08;;;1.52;;
26696;SDS011;14312;52.614;13.496;2023-08-08T08:01:15;1.50;;;1.40;;
26696;SDS011;14312;52.614;13.496;2023-08-08T08:04:00;2.95;;;1.60;;
26696;SDS011;14312;52.614;13.496;2023-08-08T08:06:48;2.25;;;1.50;;
26696;SDS011;14312;52.614;13.496;2023-08-08T08:09:34;2.60;;;1.58;;
26696;SDS011;14312;52.614;13.496;2023-08-08T08:12:20;2.65;;;1.92;;
26696;SDS011;14312;52.614;13.496;2023-08-08T08:15:06;1.75;;;1.65;;
26696;SDS011;14312;52.614;13.496;2023-08-08T08:17:53;3.20;;;1.65;;
26696;SDS011;14312;52.614;13.496;2023-08-08T08:20:39;2.50;;;1.60;;
26696;SDS011;14312;52.614;13.496;2023-08-08T08:23:25;2.88;;;1.60;;
26696;SDS011;14312;52.614;13.496;2023-08-08T08:26:09;3.38;;;1.80;;
26696;SDS011;14312;52.614;13.496;2023-08-08T08:28:55;4.03;;;1.67;;
26696;SDS011;14312;52.614;13.496;2023-08-08T08:31:41;2.20;;;1.45;;
26696;SDS011;14312;52.614;13.496;2023-08-08T08:34:27;1.63;;;1.50;;
26696;SDS011;14312;52.614;13.496;2023-08-08T08:37:13;1.85;;;1.65;;
26696;SDS011;14312;52.614;13.496;2023-08-08T08:39:59;3.55;;;1.40;;
26696;SDS011;14312;52.614;13.496;2023-08-08T08:42:46;1.52;;;1.30;;
26696;SDS011;14312;52.614;13.496;2023-08-08T08:45:34;2.03;;;1.52;;
26696;SDS011;14312;52.614;13.496;2023-08-08T08:48:24;2.55;;;1.70;;
26696;SDS011;14312;52.614;13.496;2023-08-08T08:51:11;3.75;;;1.77;;
26696;SDS011;14312;52.614;13.496;2023-08-08T08:53:58;1.95;;;1.40;;
26696;SDS011;14312;52.614;13.496;2023-08-08T08:56:44;1.77;;;1.55;;
26696;SDS011;14312;52.614;13.496;2023-08-08T08:59:30;1.88;;;1.50;;
26696;SDS011;14312;52.614;13.496;2023-08-08T09:02:16;2.05;;;1.50;;
26696;SDS011;14312;52.614;13.496;2023-08-08T09:05:06;2.47;;;1.60;;
26696;SDS011;14312;52.614;13.496;2023-08-08T09:07:52;1.95;;;1.52;;
26696;SDS011;14312;52.614;13.496;2023-08-08T09:10:39;2.05;;;1.60;;
26696;SDS011;14312;52.614;13.496;2023-08-08T09:13:25;2.88;;;1.58;;
26696;SDS011;14312;52.614;13.496;2023-08-08T09:16:12;2.38;;;1.60;;
26696;SDS011;14312;52.614;13.496;2023-08-08T09:18:59;3.60;;;1.65;;
26696;SDS011;14312;52.614;13.496;2023-08-08T09:21:46;3.20;;;1.60;;
26696;SDS011;14312;52.614;13.496;2023-08-08T09:24:37;3.38;;;1.70;;
26696;SDS011;14312;52.614;13.496;2023-08-08T09:27:23;1.95;;;1.52;;
26696;SDS011;14312;52.614;13.496;2023-08-08T09:30:09;1.55;;;1.30;;
26696;SDS011;14312;52.614;13.496;2023-08-08T09:33:00;3.25;;;1.77;;
26696;SDS011;14312;52.614;13.496;2023-08-08T09:35:47;1.73;;;1.63;;
26696;SDS011;14312;52.614;13.496;2023-08-08T09:38:33;3.33;;;2.00;;
26696;SDS011;14312;52.614;13.496;2023-08-08T09:41:20;1.67;;;1.58;;
26696;SDS011;14312;52.614;13.496;2023-08-08T09:44:07;3.33;;;1.80;;
26696;SDS011;14312;52.614;13.496;2023-08-08T09:46:53;1.80;;;1.40;;
26696;SDS011;14312;52.614;13.496;2023-08-08T09:49:39;2.58;;;1.67;;
26696;SDS011;14312;52.614;13.496;2023-08-08T09:52:29;2.10;;;1.60;;
26696;SDS011;14312;52.614;13.496;2023-08-08T09:55:16;3.10;;;1.73;;
26696;SDS011;14312;52.614;13.496;2023-08-08T09:58:02;2.78;;;1.48;;
26696;SDS011;14312;52.614;13.496;2023-08-08T10:00:49;2.97;;;1.63;;
26696;SDS011;14312;52.614;13.496;2023-08-08T10:03:36;1.75;;;1.60;;
26696;SDS011;14312;52.614;13.496;2023-08-08T10:06:23;2.13;;;1.40;;
26696;SDS011;14312;52.614;13.496;2023-08-08T10:09:09;2.63;;;1.83;;
26696;SDS011;14312;52.614;13.496;2023-08-08T10:11:55;3.70;;;2.08;;
26696;SDS011;14312;52.614;13.496;2023-08-08T10:14:44;3.47;;;1.85;;
26696;SDS011;14312;52.614;13.496;2023-08-08T10:17:34;2.08;;;1.77;;
26696;SDS011;14312;52.614;13.496;2023-08-08T10:20:21;2.05;;;1.58;;
26696;SDS011;14312;52.614;13.496;2023-08-08T10:23:07;2.17;;;1.80;;
26696;SDS011;14312;52.614;13.496;2023-08-08T10:25:53;2.35;;;1.70;;
26696;SDS011;14312;52.614;13.496;2023-08-08T10:28:40;2.90;;;1.83;;
26696;SDS011;14312;52.614;13.496;2023-08-08T10:31:27;2.97;;;2.40;;
26696;SDS011;14312;52.614;13.496;2023-08-08T10:34:13;2.30;;;2.00;;
26696;SDS011;14312;52.614;13.496;2023-08-08T10:36:59;2.15;;;1.60;;
26696;SDS011;14312;52.614;13.496;2023-08-08T10:39:52;4.32;;;1.92;;
26696;SDS011;14312;52.614;13.496;2023-08-08T10:42:45;2.42;;;1.70;;
26696;SDS011;14312;52.614;13.496;2023-08-08T10:45:32;2.15;;;1.85;;
26696;SDS011;14312;52.614;13.496;2023-08-08T10:48:20;2.25;;;1.88;;
26696;SDS011;14312;52.614;13.496;2023-08-08T10:51:06;2.33;;;1.70;;
26696;SDS011;14312;52.614;13.496;2023-08-08T10:53:52;2.60;;;2.00;;
26696;SDS011;14312;52.614;13.496;2023-08-08T10:56:38;2.25;;;1.95;;
26696;SDS011;14312;52.614;13.496;2023-08-08T10:59:25;1.45;;;1.20;;
26696;SDS011;14312;52.614;13.496;2023-08-08T11:02:24;1.40;;;1.30;;
26696;SDS011;14312;52.614;13.496;2023-08-08T11:05:10;1.52;;;1.42;;
26696;SDS011;14312;52.614;13.496;2023-08-08T11:07:58;1.30;;;1.20;;
26696;SDS011;14312;52.614;13.496;2023-08-08T11:10:45;1.70;;;1.23;;
26696;SDS011;14312;52.614;13.496;2023-08-08T11:13:38;2.90;;;1.58;;
26696;SDS011;14312;52.614;13.496;2023-08-08T11:16:24;1.50;;;1.40;;
26696;SDS011;14312;52.614;13.496;2023-08-08T11:19:11;1.50;;;1.40;;
26696;SDS011;14312;52.614;13.496;2023-08-08T11:22:08;1.60;;;1.50;;
26696;SDS011;14312;52.614;13.496;2023-08-08T11:24:55;1.50;;;1.40;;
26696;SDS011;14312;52.614;13.496;2023-08-08T11:27:51;2.05;;;1.65;;
26696;SDS011;14312;52.614;13.496;2023-08-08T11:30:39;1.65;;;1.50;;
26696;SDS011;14312;52.614;13.496;2023-08-08T11:33:27;1.77;;;1.35;;
26696;SDS011;14312;52.614;13.496;2023-08-08T11:36:13;1.75;;;1.40;;
26696;SDS011;14312;52.614;13.496;2023-08-08T11:39:01;1.58;;;1.45;;
26696;SDS011;14312;52.614;13.496;2023-08-08T11:41:53;3.47;;;1.38;;
26696;SDS011;14312;52.614;13.496;2023-08-08T11:44:39;2.47;;;1.45;;
26696;SDS011;14312;52.614;13.496;2023-08-08T11:47:25;2.47;;;1.48;;
26696;SDS011;14312;52.614;13.496;2023-08-08T11:50:11;2.00;;;1.50;;
26696;SDS011;14312;52.614;13.496;2023-08-08T11:52:58;2.47;;;1.20;;
26696;SDS011;14312;52.614;13.496;2023-08-08T11:55:45;3.08;;;1.38;;
26696;SDS011;14312;52.614;13.496;2023-08-08T11:58:31;1.60;;;1.23;;
26696;SDS011;14312;52.614;13.496;2023-08-08T12:01:24;2.15;;;1.70;;
26696;SDS011;14312;52.614;13.496;2023-08-08T12:04:11;1.40;;;1.30;;
26696;SDS011;14312;52.614;13.496;2023-08-08T12:07:01;1.35;;;1.23;;
26696;SDS011;14312;52.614;13.496;2023-08-08T12:09:49;1.60;;;1.50;;
26696;SDS011;14312;52.614;13.496;2023-08-08T12:12:34;1.63;;;1.38;;
26696;SDS011;14312;52.614;13.496;2023-08-08T12:15:22;4.35;;;1.70;;
26696;SDS011;14312;52.614;13.496;2023-08-08T12:18:08;2.70;;;1.67;;
26696;SDS011;14312;52.614;13.496;2023-08-08T12:20:54;2.30;;;1.70;;
26696;SDS011;14312;52.614;13.496;2023-08-08T12:23:40;2.05;;;1.50;;
26696;SDS011;14312;52.614;13.496;2023-08-08T12:26:26;1.33;;;1.20;;
26696;SDS011;14312;52.614;13.496;2023-08-08T12:29:12;1.60;;;1.50;;
26696;SDS011;14312;52.614;13.496;2023-08-08T12:31:58;1.85;;;1.60;;
26696;SDS011;14312;52.614;13.496;2023-08-08T12:34:44;2.50;;;1.70;;
26696;SDS011;14312;52.614;13.496;2023-08-08T12:37:30;2.35;;;1.63;;
26696;SDS011;14312;52.614;13.496;2023-08-08T12:40:16;2.10;;;1.75;;
26696;SDS011;14312;52.614;13.496;2023-08-08T12:43:02;1.95;;;1.75;;
26696;SDS011;14312;52.614;13.496;2023-08-08T12:45:48;2.08;;;1.42;;
26696;SDS011;14312;52.614;13.496;2023-08-08T12:48:34;2.28;;;2.00;;
26696;SDS011;14312;52.614;13.496;2023-08-08T12:51:20;1.70;;;1.60;;
26696;SDS011;14312;52.614;13.496;2023-08-08T12:54:06;1.80;;;1.70;;
26696;SDS011;14312;52.614;13.496;2023-08-08T12:56:52;1.48;;;1.38;;
26696;SDS011;14312;52.614;13.496;2023-08-08T12:59:38;2.45;;;1.77;;
26696;SDS011;14312;52.614;13.496;2023-08-08T13:02:24;3.05;;;1.70;;
26696;SDS011;14312;52.614;13.496;2023-08-08T13:05:09;1.77;;;1.67;;
26696;SDS011;14312;52.614;13.496;2023-08-08T13:07:55;1.70;;;1.60;;
26696;SDS011;14312;52.614;13.496;2023-08-08T13:10:41;1.40;;;1.30;;
26696;SDS011;14312;52.614;13.496;2023-08-08T13:13:28;2.75;;;1.40;;
26696;SDS011;14312;52.614;13.496;2023-08-08T13:16:14;2.00;;;1.40;;
26696;SDS011;14312;52.614;13.496;2023-08-08T13:19:00;1.65;;;1.40;;
26696;SDS011;14312;52.614;13.496;2023-08-08T13:21:46;1.65;;;1.13;;
26696;SDS011;14312;52.614;13.496;2023-08-08T13:24:32;1.40;;;1.30;;
26696;SDS011;14312;52.614;13.496;2023-08-08T13:27:18;1.42;;;1.33;;
26696;SDS011;14312;52.614;13.496;2023-08-08T13:30:04;1.63;;;1.40;;
26696;SDS011;14312;52.614;13.496;2023-08-08T13:32:51;1.55;;;1.40;;
26696;SDS011;14312;52.614;13.496;2023-08-08T13:35:37;2.05;;;1.23;;
26696;SDS011;14312;52.614;13.496;2023-08-08T13:38:23;2.65;;;1.23;;
26696;SDS011;14312;52.614;13.496;2023-08-08T13:41:09;1.20;;;1.10;;
26696;SDS011;14312;52.614;13.496;2023-08-08T13:43:55;1.20;;;1.10;;
26696;SDS011;14312;52.614;13.496;2023-08-08T13:46:41;1.42;;;1.33;;
26696;SDS011;14312;52.614;13.496;2023-08-08T13:49:27;2.20;;;1.38;;
26696;SDS011;14312;52.614;13.496;2023-08-08T13:52:13;2.70;;;1.58;;
26696;SDS011;14312;52.614;13.496;2023-08-08T13:54:59;1.20;;;1.20;;
26696;SDS011;14312;52.614;13.496;2023-08-08T13:57:45;1.50;;;1.40;;
26696;SDS011;14312;52.614;13.496;2023-08-08T14:00:31;1.50;;;1.40;;
26696;SDS011;14312;52.614;13.496;2023-08-08T14:03:17;1.13;;;0.95;;
26696;SDS011;14312;52.614;13.496;2023-08-08T14:06:04;2.20;;;0.90;;
26696;SDS011;14312;52.614;13.496;2023-08-08T14:08:50;0.90;;;0.90;;
26696;SDS011;14312;52.614;13.496;2023-08-08T14:11:37;1.00;;;0.98;;
26696;SDS011;14312;52.614;13.496;2023-08-08T14:14:23;1.20;;;1.10;;
26696;SDS011;14312;52.614;13.496;2023-08-08T14:17:09;1.15;;;1.00;;
26696;SDS011;14312;52.614;13.496;2023-08-08T14:19:55;0.90;;;0.90;;
26696;SDS011;14312;52.614;13.496;2023-08-08T14:22:44;1.48;;;1.00;;
26696;SDS011;14312;52.614;13.496;2023-08-08T14:25:31;1.30;;;1.20;;
26696;SDS011;14312;52.614;13.496;2023-08-08T14:28:18;1.20;;;1.10;;
26696;SDS011;14312;52.614;13.496;2023-08-08T14:31:04;1.10;;;1.00;;
26696;SDS011;14312;52.614;13.496;2023-08-08T14:33:51;2.05;;;1.40;;
26696;SDS011;14312;52.614;13.496;2023-08-08T14:36:37;1.50;;;1.20;;
26696;SDS011;14312;52.614;13.496;2023-08-08T14:39:24;1.33;;;1.23;;
26696;SDS011;14312;52.614;13.496;2023-08-08T14:42:10;1.63;;;1.30;;
26696;SDS011;14312;52.614;13.496;2023-08-08T14:44:56;1.15;;;1.05;;
26696;SDS011;14312;52.614;13.496;2023-08-08T14:47:42;1.13;;;1.02;;
26696;SDS011;14312;52.614;13.496;2023-08-08T14:50:28;1.10;;;1.00;;
26696;SDS011;14312;52.614;13.496;2023-08-08T14:53:13;2.30;;;1.25;;
26696;SDS011;14312;52.614;13.496;2023-08-08T14:55:59;1.30;;;1.20;;
26696;SDS011;14312;52.614;13.496;2023-08-08T14:58:45;1.30;;;1.17;;
26696;SDS011;14312;52.614;13.496;2023-08-08T15:01:31;1.30;;;1.20;;
26696;SDS011;14312;52.614;13.496;2023-08-08T15:04:17;0.80;;;0.80;;
26696;SDS011;14312;52.614;13.496;2023-08-08T15:07:03;1.00;;;0.90;;
26696;SDS011;14312;52.614;13.496;2023-08-08T15:09:49;0.80;;;0.80;;
26696;SDS011;14312;52.614;13.496;2023-08-08T15:12:35;1.48;;;0.90;;
26696;SDS011;14312;52.614;13.496;2023-08-08T15:15:21;1.02;;;0.90;;
26696;SDS011;14312;52.614;13.496;2023-08-08T15:18:08;0.70;;;0.70;;
26696;SDS011;14312;52.614;13.496;2023-08-08T15:20:54;1.40;;;0.88;;
26696;SDS011;14312;52.614;13.496;2023-08-08T15:23:40;1.27;;;1.00;;
26696;SDS011;14312;52.614;13.496;2023-08-08T15:26:27;0.73;;;0.70;;
26696;SDS011;14312;52.614;13.496;2023-08-08T15:29:13;0.88;;;0.88;;
26696;SDS011;14312;52.614;13.496;2023-08-08T15:31:59;0.88;;;0.80;;
26696;SDS011;14312;52.614;13.496;2023-08-08T15:34:45;1.00;;;0.80;;
26696;SDS011;14312;52.614;13.496;2023-08-08T15:37:31;4.80;;;1.05;;
26696;SDS011;14312;52.614;13.496;2023-08-08T15:40:17;0.70;;;0.70;;
26696;SDS011;14312;52.614;13.496;2023-08-08T15:43:03;1.10;;;0.68;;
26696;SDS011;14312;52.614;13.496;2023-08-08T15:45:49;0.73;;;0.60;;
26696;SDS011;14312;52.614;13.496;2023-08-08T15:48:34;1.02;;;0.80;;
26696;SDS011;14312;52.614;13.496;2023-08-08T15:51:20;0.73;;;0.70;;
26696;SDS011;14312;52.614;13.496;2023-08-08T15:54:06;0.70;;;0.70;;
26696;SDS011;14312;52.614;13.496;2023-08-08T15:56:52;0.70;;;0.70;;
26696;SDS011;14312;52.614;13.496;2023-08-08T15:59:38;0.63;;;0.60;;
26696;SDS011;14312;52.614;13.496;2023-08-08T16:02:27;1.65;;;0.70;;
26696;SDS011;14312;52.614;13.496;2023-08-08T16:05:13;0.70;;;0.70;;
26696;SDS011;14312;52.614;13.496;2023-08-08T16:07:59;0.63;;;0.63;;
26696;SDS011;14312;52.614;13.496;2023-08-08T16:10:46;1.08;;;0.82;;
26696;SDS011;14312;52.614;13.496;2023-08-08T16:13:32;0.75;;;0.75;;
26696;SDS011;14312;52.614;13.496;2023-08-08T16:16:18;0.77;;;0.70;;
26696;SDS011;14312;52.614;13.496;2023-08-08T16:19:05;0.60;;;0.60;;
26696;SDS011;14312;52.614;13.496;2023-08-08T16:21:50;0.82;;;0.82;;
26696;SDS011;14312;52.614;13.496;2023-08-08T16:24:36;0.65;;;0.65;;
26696;SDS011;14312;52.614;13.496;2023-08-08T16:27:22;0.68;;;0.68;;